createdAt,value
2022-08-31T00:00:10.935Z,100.00
2022-08-31T00:02:57.091Z,100.00
2022-08-31T00:05:24.215Z,100.00
2022-08-31T00:07:52.560Z,100.00
2022-08-31T00:10:31.948Z,100.00
2022-08-31T00:13:02.867Z,100.00
2022-08-31T00:15:30.558Z,98.51
2022-08-31T00:17:58.059Z,95.36
2022-08-31T00:20:33.251Z,100.00
2022-08-31T00:23:06.974Z,100.00
2022-08-31T00:25:35.340Z,100.00
2022-08-31T00:28:03.448Z,100.00
2022-08-31T00:30:30.702Z,100.00
2022-08-31T00:32:58.433Z,100.00
2022-08-31T00:35:28.481Z,100.00
2022-08-31T00:37:56.170Z,100.00
2022-08-31T00:40:23.924Z,100.00
2022-08-31T00:42:51.643Z,100.00
2022-08-31T00:45:18.958Z,100.00
2022-08-31T00:47:45.899Z,100.00
2022-08-31T00:50:14.849Z,100.00
2022-08-31T00:52:48.612Z,100.00
2022-08-31T00:55:24.625Z,100.00
2022-08-31T00:57:55.828Z,100.00
2022-08-31T01:00:26.205Z,100.00
2022-08-31T01:02:54.203Z,100.00
2022-08-31T01:05:21.247Z,100.00
2022-08-31T01:07:49.318Z,99.94
2022-08-31T01:10:19.552Z,99.26
2022-08-31T01:12:48.796Z,100.00
2022-08-31T01:15:18.868Z,100.00
2022-08-31T01:17:51.093Z,99.89
2022-08-31T01:20:29.252Z,100.00
2022-08-31T01:23:08.340Z,100.00
2022-08-31T01:25:37.517Z,100.00
2022-08-31T01:28:06.945Z,97.22
2022-08-31T01:30:35.292Z,96.20
2022-08-31T01:33:02.343Z,99.76
2022-08-31T01:35:31.612Z,97.48
2022-08-31T01:37:59.118Z,100.00
2022-08-31T01:40:35.253Z,100.00
2022-08-31T01:43:02.747Z,100.00
2022-08-31T01:45:29.894Z,99.73
2022-08-31T01:48:00.004Z,99.09
2022-08-31T01:50:27.291Z,96.63
2022-08-31T01:52:54.216Z,98.60
2022-08-31T01:55:21.377Z,100.00
2022-08-31T01:57:48.625Z,100.00
2022-08-31T02:00:35.222Z,100.00
2022-08-31T02:03:07.960Z,100.00
2022-08-31T02:05:37.247Z,100.00
2022-08-31T02:08:06.815Z,100.00
2022-08-31T02:10:33.822Z,100.00
2022-08-31T02:13:00.796Z,100.00
2022-08-31T02:15:31.415Z,100.00
2022-08-31T02:17:58.682Z,98.53
2022-08-31T02:20:26.164Z,96.07
2022-08-31T02:22:53.102Z,95.10
2022-08-31T02:25:20.315Z,94.62
2022-08-31T02:27:47.850Z,96.88
2022-08-31T02:30:19.456Z,98.70
2022-08-31T02:32:47.046Z,97.60
2022-08-31T02:35:14.285Z,99.98
2022-08-31T02:37:41.906Z,100.00
2022-08-31T02:40:12.379Z,99.25
2022-08-31T02:42:53.291Z,96.66
2022-08-31T02:45:24.571Z,94.33
2022-08-31T02:47:54.380Z,93.32
2022-08-31T02:50:45.951Z,93.10
2022-08-31T02:53:15.451Z,93.69
2022-08-31T02:55:45.649Z,93.73
2022-08-31T02:58:13.261Z,94.96
2022-08-31T03:00:46.255Z,94.72
2022-08-31T03:03:14.539Z,94.31
2022-08-31T03:05:41.733Z,95.39
2022-08-31T03:08:08.886Z,99.38
2022-08-31T03:10:36.410Z,100.00
2022-08-31T03:13:03.864Z,100.00
2022-08-31T03:15:31.337Z,100.00
2022-08-31T03:18:01.658Z,100.00
2022-08-31T03:20:34.496Z,100.00
2022-08-31T03:23:03.030Z,100.00
2022-08-31T03:25:31.248Z,99.11
2022-08-31T03:27:58.582Z,100.00
2022-08-31T03:30:27.485Z,99.43
2022-08-31T03:33:06.633Z,98.93
2022-08-31T03:35:35.673Z,99.33
2022-08-31T03:38:03.441Z,100.00
2022-08-31T03:40:30.745Z,100.00
2022-08-31T03:42:58.990Z,99.50
2022-08-31T03:45:27.987Z,99.30
2022-08-31T03:47:55.336Z,99.42
2022-08-31T03:50:24.415Z,100.00
2022-08-31T03:52:59.141Z,98.57
2022-08-31T03:55:28.336Z,99.78
2022-08-31T03:57:55.807Z,97.71
2022-08-31T04:00:24.001Z,100.00
2022-08-31T04:02:59.797Z,100.00
2022-08-31T04:05:36.437Z,100.00
2022-08-31T04:08:13.648Z,99.87
2022-08-31T04:10:46.175Z,99.43
2022-08-31T04:13:31.647Z,95.13
2022-08-31T04:16:20.762Z,95.72
2022-08-31T04:18:50.354Z,94.92
2022-08-31T04:21:20.825Z,93.73
2022-08-31T04:23:49.034Z,95.25
2022-08-31T04:26:25.486Z,98.67
2022-08-31T04:28:53.441Z,100.00
2022-08-31T04:31:22.420Z,100.00
2022-08-31T04:33:51.211Z,100.00
2022-08-31T04:36:21.866Z,99.53
2022-08-31T04:38:53.756Z,99.12
2022-08-31T04:41:23.823Z,98.75
2022-08-31T04:43:54.225Z,97.90
2022-08-31T04:46:22.363Z,95.49
2022-08-31T04:48:53.245Z,93.86
2022-08-31T04:51:33.169Z,94.50
2022-08-31T04:54:00.153Z,95.80
2022-08-31T04:56:30.521Z,92.42
2022-08-31T04:59:04.220Z,89.97
2022-08-31T05:01:43.483Z,89.19
2022-08-31T05:04:36.477Z,89.47
2022-08-31T05:07:03.936Z,90.19
2022-08-31T05:09:30.981Z,91.48
2022-08-31T05:11:58.556Z,91.76
2022-08-31T05:14:26.230Z,93.12
2022-08-31T05:17:01.459Z,92.65
2022-08-31T05:19:32.161Z,90.83
2022-08-31T05:21:59.619Z,88.94
2022-08-31T05:24:27.049Z,88.32
2022-08-31T05:26:56.253Z,88.79
2022-08-31T05:29:25.630Z,90.52
2022-08-31T05:32:22.155Z,90.37
2022-08-31T05:34:50.183Z,91.60
2022-08-31T05:37:17.329Z,90.03
2022-08-31T05:39:44.311Z,90.09
2022-08-31T05:42:15.483Z,89.90
2022-08-31T05:44:43.368Z,92.10
2022-08-31T05:47:10.359Z,91.05
2022-08-31T05:49:37.407Z,89.42
2022-08-31T05:52:07.961Z,88.20
2022-08-31T05:54:36.562Z,87.85
2022-08-31T05:57:04.760Z,85.79
2022-08-31T05:59:32.160Z,86.23
2022-08-31T06:02:01.908Z,84.61
2022-08-31T06:04:33.194Z,85.04
2022-08-31T06:07:00.225Z,84.10
2022-08-31T06:09:34.282Z,81.76
2022-08-31T06:12:03.609Z,81.88
2022-08-31T06:14:30.818Z,77.82
2022-08-31T06:17:00.136Z,75.88
2022-08-31T06:19:27.553Z,74.99
2022-08-31T06:21:55.866Z,77.66
2022-08-31T06:24:25.491Z,75.56
2022-08-31T06:26:58.877Z,77.34
2022-08-31T06:29:32.574Z,74.88
2022-08-31T06:32:01.163Z,75.57
2022-08-31T06:34:29.604Z,74.24
2022-08-31T06:37:19.174Z,75.41
2022-08-31T06:40:01.328Z,74.05
2022-08-31T06:42:52.139Z,75.45
2022-08-31T06:45:31.647Z,73.84
2022-08-31T06:48:22.892Z,71.66
2022-08-31T06:50:57.130Z,73.28
2022-08-31T06:53:24.919Z,74.48
2022-08-31T06:56:20.394Z,70.18
2022-08-31T06:59:07.662Z,68.37
2022-08-31T07:02:01.866Z,65.40
2022-08-31T07:04:38.749Z,64.39
2022-08-31T07:07:07.939Z,67.90
2022-08-31T07:09:35.176Z,65.64
2022-08-31T07:12:04.152Z,69.01
2022-08-31T07:14:31.324Z,68.43
2022-08-31T07:17:00.300Z,68.44
2022-08-31T07:19:27.855Z,65.89
2022-08-31T07:21:59.514Z,65.17
2022-08-31T07:24:33.405Z,65.11
2022-08-31T07:27:10.268Z,63.61
2022-08-31T07:29:46.221Z,61.28
2022-08-31T07:32:16.072Z,61.93
2022-08-31T07:34:44.407Z,62.32
2022-08-31T07:37:41.426Z,63.04
2022-08-31T07:40:29.686Z,62.30
2022-08-31T07:42:56.880Z,62.30
2022-08-31T07:45:25.844Z,63.59
2022-08-31T07:47:59.973Z,64.18
2022-08-31T07:50:41.600Z,63.58
2022-08-31T07:53:22.491Z,62.79
2022-08-31T07:56:12.354Z,62.99
2022-08-31T07:58:42.834Z,61.55
2022-08-31T08:01:11.870Z,58.63
2022-08-31T08:03:44.197Z,56.39
2022-08-31T08:06:43.719Z,55.03
2022-08-31T08:09:24.468Z,54.19
2022-08-31T08:12:15.994Z,53.28
2022-08-31T08:14:59.085Z,51.84
2022-08-31T08:17:48.869Z,51.52
2022-08-31T08:20:35.249Z,50.79
2022-08-31T08:23:13.730Z,49.27
2022-08-31T08:26:29.128Z,47.05
2022-08-31T08:29:17.510Z,44.69
2022-08-31T08:31:52.321Z,43.27
2022-08-31T08:34:21.716Z,41.80
2022-08-31T08:36:59.153Z,41.25
2022-08-31T08:39:26.252Z,41.49
2022-08-31T08:42:10.944Z,38.50
2022-08-31T08:44:39.583Z,38.41
2022-08-31T08:47:15.146Z,39.15
2022-08-31T08:49:55.041Z,40.05
2022-08-31T08:52:29.371Z,40.82
2022-08-31T08:55:02.021Z,41.52
2022-08-31T08:57:39.241Z,41.87
2022-08-31T09:00:22.034Z,42.02
2022-08-31T09:02:58.575Z,42.34
2022-08-31T09:05:53.127Z,42.42
2022-08-31T09:08:48.830Z,40.92
2022-08-31T09:11:22.903Z,38.90
2022-08-31T09:14:06.248Z,38.03
2022-08-31T09:16:58.928Z,37.78
2022-08-31T09:19:26.386Z,34.22
2022-08-31T09:21:56.794Z,32.84
2022-08-31T09:24:30.408Z,30.09
2022-08-31T09:27:18.809Z,29.65
2022-08-31T09:29:46.777Z,28.70
2022-08-31T09:32:24.769Z,32.17
2022-08-31T09:35:06.496Z,31.27
2022-08-31T09:37:46.317Z,30.43
2022-08-31T09:40:36.444Z,33.37
2022-08-31T09:43:10.855Z,32.41
2022-08-31T09:46:05.175Z,34.76
2022-08-31T09:49:03.282Z,33.36
2022-08-31T09:51:36.237Z,36.76
2022-08-31T09:54:33.722Z,36.30
2022-08-31T09:57:03.454Z,41.15
2022-08-31T09:59:38.616Z,42.31
2022-08-31T10:02:12.244Z,41.20
2022-08-31T10:04:51.226Z,40.65
2022-08-31T10:07:57.572Z,41.68
2022-08-31T10:10:33.182Z,45.18
2022-08-31T10:13:22.200Z,44.96
2022-08-31T10:16:02.401Z,48.55
2022-08-31T10:18:33.574Z,48.53
2022-08-31T10:21:10.844Z,45.97
2022-08-31T10:23:56.433Z,45.58
2022-08-31T10:26:35.210Z,45.20
2022-08-31T10:29:22.739Z,45.48
2022-08-31T10:31:55.028Z,42.44
2022-08-31T10:34:46.788Z,43.80
2022-08-31T10:37:36.276Z,41.79
2022-08-31T10:40:09.040Z,40.61
2022-08-31T10:42:46.311Z,40.69
2022-08-31T10:45:18.605Z,38.56
2022-08-31T10:47:49.278Z,36.91
2022-08-31T10:50:35.807Z,36.48
2022-08-31T10:53:40.073Z,35.72
2022-08-31T10:56:25.563Z,37.87
2022-08-31T10:59:16.162Z,38.42
2022-08-31T11:01:52.136Z,38.90
2022-08-31T11:04:35.414Z,42.38
2022-08-31T11:07:25.111Z,44.03
2022-08-31T11:09:57.138Z,45.78
2022-08-31T11:12:32.126Z,46.62
2022-08-31T11:14:59.620Z,48.27
2022-08-31T11:17:35.756Z,51.68
2022-08-31T11:20:06.437Z,52.21
2022-08-31T11:22:53.580Z,51.42
2022-08-31T11:25:56.176Z,49.85
2022-08-31T11:28:34.364Z,46.89
2022-08-31T11:31:23.875Z,47.92
2022-08-31T11:34:14.964Z,47.66
2022-08-31T11:36:57.829Z,48.56
2022-08-31T11:39:38.509Z,49.09
2022-08-31T11:42:12.539Z,50.11
2022-08-31T11:44:39.826Z,51.12
2022-08-31T11:47:15.364Z,50.85
2022-08-31T11:49:47.203Z,50.90
2022-08-31T11:52:29.789Z,52.68
2022-08-31T11:55:01.705Z,54.53
2022-08-31T11:57:37.449Z,55.25
2022-08-31T12:00:19.539Z,50.61
2022-08-31T12:03:02.875Z,39.89
2022-08-31T12:05:51.078Z,42.39
2022-08-31T12:08:18.676Z,36.11
2022-08-31T12:11:21.080Z,33.66
2022-08-31T12:14:01.313Z,37.12
2022-08-31T12:16:41.111Z,45.05
2022-08-31T12:19:52.668Z,47.21
2022-08-31T12:23:12.089Z,45.53
2022-08-31T12:26:05.876Z,41.10
2022-08-31T12:29:10.316Z,44.66
2022-08-31T12:31:40.184Z,47.94
2022-08-31T12:34:17.226Z,46.50
2022-08-31T12:36:44.735Z,42.46
2022-08-31T12:39:11.812Z,44.98
2022-08-31T12:41:42.740Z,45.91
2022-08-31T12:44:14.100Z,46.10
2022-08-31T12:46:58.016Z,47.44
2022-08-31T12:49:24.849Z,48.22
2022-08-31T12:52:16.914Z,47.64
2022-08-31T12:55:04.594Z,46.41
2022-08-31T12:57:44.263Z,47.21
2022-08-31T13:00:26.139Z,45.38
2022-08-31T13:02:59.296Z,43.73
2022-08-31T13:05:38.916Z,44.31
2022-08-31T13:08:24.445Z,47.49
2022-08-31T13:10:52.206Z,50.79
2022-08-31T13:13:28.271Z,48.91
2022-08-31T13:16:08.036Z,48.81
2022-08-31T13:18:36.706Z,53.35
2022-08-31T13:21:07.125Z,52.27
2022-08-31T13:23:41.078Z,52.41
2022-08-31T13:26:28.310Z,52.45
2022-08-31T13:29:01.064Z,51.62
2022-08-31T13:31:31.034Z,52.29
2022-08-31T13:34:05.387Z,51.58
2022-08-31T13:36:34.948Z,50.52
2022-08-31T13:39:04.339Z,51.15
2022-08-31T13:41:37.325Z,50.47
2022-08-31T13:44:09.874Z,50.75
2022-08-31T13:46:44.315Z,51.87
2022-08-31T13:49:29.856Z,51.88
2022-08-31T13:51:57.437Z,51.75
2022-08-31T13:54:29.377Z,50.00
2022-08-31T13:56:56.406Z,49.47
2022-08-31T13:59:26.796Z,48.81
2022-08-31T14:02:01.844Z,49.28
2022-08-31T14:04:50.494Z,51.46
2022-08-31T14:07:22.075Z,50.55
2022-08-31T14:10:02.182Z,51.35
2022-08-31T14:12:36.666Z,52.54
2022-08-31T14:15:05.038Z,51.42
2022-08-31T14:17:32.394Z,53.11
2022-08-31T14:20:39.351Z,52.90
2022-08-31T14:23:25.575Z,52.98
2022-08-31T14:26:17.698Z,55.77
2022-08-31T14:28:48.234Z,57.56
2022-08-31T14:31:24.581Z,56.01
2022-08-31T14:34:15.195Z,58.07
2022-08-31T14:36:55.954Z,57.55
2022-08-31T14:39:34.513Z,57.09
2022-08-31T14:42:06.281Z,58.03
2022-08-31T14:44:43.178Z,54.69
2022-08-31T14:47:10.273Z,57.63
2022-08-31T14:49:37.962Z,60.53
2022-08-31T14:52:06.569Z,62.44
2022-08-31T14:54:37.998Z,66.25
2022-08-31T14:57:26.229Z,67.54
2022-08-31T14:59:57.780Z,69.32
2022-08-31T15:02:27.356Z,71.51
2022-08-31T15:05:04.193Z,70.67
2022-08-31T15:07:32.937Z,70.47
2022-08-31T15:09:59.840Z,70.31
2022-08-31T15:12:27.189Z,69.39
2022-08-31T15:14:59.041Z,68.79
2022-08-31T15:17:33.974Z,68.92
2022-08-31T15:20:03.710Z,65.11
2022-08-31T15:22:32.732Z,66.12
2022-08-31T15:24:59.636Z,65.82
2022-08-31T15:27:31.499Z,66.98
2022-08-31T15:30:07.747Z,66.02
2022-08-31T15:32:44.449Z,64.69
2022-08-31T15:35:17.903Z,61.83
2022-08-31T15:37:52.223Z,63.73
2022-08-31T15:40:19.420Z,63.33
2022-08-31T15:42:46.361Z,64.29
2022-08-31T15:45:13.521Z,62.84
2022-08-31T15:47:59.394Z,60.96
2022-08-31T15:50:32.107Z,63.67
2022-08-31T15:53:08.271Z,64.75
2022-08-31T15:55:40.652Z,66.54
2022-08-31T15:58:09.527Z,66.85
2022-08-31T16:00:37.436Z,67.59
2022-08-31T16:03:06.341Z,71.51
2022-08-31T16:05:39.521Z,70.53
2022-08-31T16:08:08.693Z,71.59
2022-08-31T16:10:37.064Z,71.70
2022-08-31T16:13:07.818Z,70.14
2022-08-31T16:15:35.439Z,68.42
2022-08-31T16:18:05.245Z,68.41
2022-08-31T16:20:34.576Z,70.26
2022-08-31T16:23:01.757Z,69.59
2022-08-31T16:25:30.568Z,70.95
2022-08-31T16:28:15.150Z,69.21
2022-08-31T16:30:43.947Z,67.88
2022-08-31T16:33:12.211Z,68.61
2022-08-31T16:35:39.730Z,69.47
2022-08-31T16:38:07.495Z,70.42
2022-08-31T16:40:35.600Z,72.06
2022-08-31T16:43:03.440Z,72.71
2022-08-31T16:45:30.591Z,75.94
2022-08-31T16:48:15.994Z,79.25
2022-08-31T16:50:47.699Z,81.55
2022-08-31T16:53:18.460Z,82.75
2022-08-31T16:55:50.091Z,80.23
2022-08-31T16:58:29.784Z,78.36
2022-08-31T17:01:12.471Z,77.18
2022-08-31T17:03:44.492Z,77.64
2022-08-31T17:06:13.237Z,76.98
2022-08-31T17:08:45.605Z,76.17
2022-08-31T17:11:23.871Z,75.77
2022-08-31T17:13:58.406Z,76.32
2022-08-31T17:16:29.133Z,77.06
2022-08-31T17:18:58.351Z,76.07
2022-08-31T17:21:28.627Z,76.41
2022-08-31T17:23:59.258Z,75.66
2022-08-31T17:26:34.763Z,74.79
2022-08-31T17:29:05.739Z,74.37
2022-08-31T17:31:45.095Z,74.23
2022-08-31T17:34:19.669Z,75.54
2022-08-31T17:36:47.693Z,77.08
2022-08-31T17:39:17.330Z,77.31
2022-08-31T17:41:45.408Z,78.21
2022-08-31T17:44:16.260Z,75.93
2022-08-31T17:46:44.855Z,75.95
2022-08-31T17:49:11.997Z,76.95
2022-08-31T17:51:39.281Z,75.89
2022-08-31T17:54:12.768Z,75.13
2022-08-31T17:56:47.736Z,75.16
2022-08-31T17:59:19.097Z,74.93
2022-08-31T18:01:47.756Z,75.73
2022-08-31T18:04:15.832Z,75.95
2022-08-31T18:06:45.087Z,75.11
2022-08-31T18:09:18.041Z,75.40
2022-08-31T18:11:46.085Z,73.62
2022-08-31T18:14:14.235Z,72.34
2022-08-31T18:16:43.479Z,74.02
2022-08-31T18:19:10.975Z,74.55
2022-08-31T18:21:38.539Z,74.81
2022-08-31T18:24:07.108Z,72.88
2022-08-31T18:26:43.775Z,72.31
2022-08-31T18:29:17.011Z,72.57
2022-08-31T18:31:50.216Z,73.50
2022-08-31T18:34:22.152Z,76.23
2022-08-31T18:36:51.429Z,77.77
2022-08-31T18:39:34.803Z,77.19
2022-08-31T18:42:26.755Z,75.62
2022-08-31T18:45:12.457Z,75.04
2022-08-31T18:47:39.366Z,75.59
2022-08-31T18:50:06.988Z,74.11
2022-08-31T18:52:39.411Z,75.26
2022-08-31T18:55:07.538Z,75.45
2022-08-31T18:57:48.549Z,76.78
2022-08-31T19:00:17.914Z,78.57
2022-08-31T19:02:45.434Z,82.79
2022-08-31T19:05:14.406Z,80.01
2022-08-31T19:07:42.048Z,76.48
2022-08-31T19:10:13.050Z,71.73
2022-08-31T19:12:42.715Z,68.65
2022-08-31T19:15:13.259Z,66.02
2022-08-31T19:17:43.268Z,64.17
2022-08-31T19:20:11.614Z,63.69
2022-08-31T19:22:38.782Z,63.90
2022-08-31T19:25:09.216Z,62.58
2022-08-31T19:27:36.769Z,61.38
2022-08-31T19:30:08.415Z,61.26
2022-08-31T19:32:36.897Z,61.31
2022-08-31T19:35:04.545Z,60.78
2022-08-31T19:37:31.493Z,60.60
2022-08-31T19:39:58.505Z,60.31
2022-08-31T19:45:41.028Z,59.25
2022-08-31T19:48:05.525Z,59.30
2022-08-31T19:50:41.535Z,58.82
2022-08-31T19:53:12.679Z,57.87
2022-08-31T19:55:51.766Z,58.28
2022-08-31T19:58:22.393Z,58.96
2022-08-31T20:00:50.050Z,59.16
